Time;durP1;ratioP1;P1;durP2;ratioP2;P2;SDS_P1;SDS_P2;PMS_P1;PMS_P2;Temp;Humidity;BMP_temperature;BMP_pressure;BME280_temperature;BME280_humidity;BME280_pressure;Samples;Min_cycle;Max_cycle;Signal;HPM_P1;HPM_P2
2022/09/07 00:22:11;;;;;;;6.90;5.45;;;;;;;18.73;100.00;100104.56;5040426;23;20228;-76
2022/09/07 00:24:38;;;;;;;5.35;4.78;;;;;;;18.80;100.00;100096.78;4966563;29;20197;-77
2022/09/07 00:27:05;;;;;;;6.05;4.82;;;;;;;18.71;100.00;100090.19;4963976;29;20200;-76
2022/09/07 00:29:32;;;;;;;5.22;4.40;;;;;;;18.82;100.00;100097.50;4963716;29;20232;-76
2022/09/07 00:31:59;;;;;;;10.48;5.40;;;;;;;18.83;100.00;100107.41;4945836;29;20239;-76
2022/09/07 00:34:26;;;;;;;7.03;4.97;;;;;;;18.52;100.00;100101.81;4986643;23;20254;-73
2022/09/07 00:36:53;;;;;;;8.73;5.43;;;;;;;18.37;100.00;100122.16;4954099;29;20315;-77
2022/09/07 00:39:21;;;;;;;9.38;5.10;;;;;;;18.49;100.00;100115.66;4954764;29;20204;-74
2022/09/07 00:41:48;;;;;;;7.25;5.55;;;;;;;18.66;100.00;100110.69;4956065;28;20288;-75
2022/09/07 00:44:57;;;;;;;6.43;4.25;;;;;;;18.74;100.00;100108.16;4956239;29;20235;-74
2022/09/07 00:47:29;;;;;;;5.10;4.65;;;;;;;18.71;100.00;100095.66;4936997;29;20248;-76
2022/09/07 00:49:59;;;;;;;6.30;5.00;;;;;;;18.80;100.00;100093.19;4936839;29;20244;-76
2022/09/07 00:52:29;;;;;;;7.07;4.72;;;;;;;18.81;100.00;100094.91;4937029;29;20194;-76
2022/09/07 00:55:02;;;;;;;7.13;5.15;;;;;;;18.89;100.00;100095.13;4937581;29;20259;-76
2022/09/07 00:57:29;;;;;;;6.70;4.60;;;;;;;18.93;100.00;100093.88;4937153;29;20249;-76
2022/09/07 00:59:58;;;;;;;6.30;5.07;;;;;;;18.56;100.00;100096.94;4936805;29;20544;-75
2022/09/07 01:02:25;;;;;;;6.30;5.07;;;;;;;18.73;100.00;100101.00;4937640;29;20820;-75
2022/09/07 01:05:08;;;;;;;7.95;5.25;;;;;;;18.74;100.00;100113.63;4937679;29;20497;-75
2022/09/07 01:07:36;;;;;;;6.40;4.90;;;;;;;18.52;100.00;100136.38;4936537;29;20217;-75
2022/09/07 01:10:06;;;;;;;5.75;5.00;;;;;;;18.41;100.00;100148.16;4934858;29;20233;-76
2022/09/07 01:12:33;;;;;;;7.38;4.80;;;;;;;18.53;100.00;100136.25;4935713;29;20216;-75
2022/09/07 01:15:00;;;;;;;5.18;4.35;;;;;;;18.67;100.00;100131.50;4935271;29;20352;-74
2022/09/07 01:17:36;;;;;;;9.45;4.78;;;;;;;18.77;100.00;100118.88;4935818;29;20205;-75
2022/09/07 01:20:43;;;;;;;6.80;4.47;;;;;;;18.90;100.00;100094.13;4936505;29;20212;-75
2022/09/07 01:23:50;;;;;;;6.80;5.30;;;;;;;18.99;100.00;100092.47;4920646;29;20205;-75
2022/09/07 01:26:51;;;;;;;4.72;4.22;;;;;;;18.99;100.00;100089.75;4920111;29;20240;-75
2022/09/07 01:29:27;;;;;;;7.53;5.13;;;;;;;19.06;100.00;100082.75;4926048;29;20213;-75
2022/09/07 01:32:04;;;;;;;9.27;6.22;;;;;;;18.92;100.00;100086.69;4938765;29;20316;-75
2022/09/07 01:34:32;;;;;;;8.88;6.72;;;;;;;18.87;100.00;100087.06;4938582;29;20584;-74
2022/09/07 01:37:07;;;;;;;10.37;6.80;;;;;;;18.82;100.00;100072.97;4938208;29;20288;-74
2022/09/07 01:39:43;;;;;;;8.40;6.40;;;;;;;18.89;100.00;100068.72;4938636;29;20496;-75
2022/09/07 01:42:12;;;;;;;8.95;6.70;;;;;;;19.01;100.00;100046.81;4938647;29;20220;-75
2022/09/07 01:44:45;;;;;;;10.50;6.73;;;;;;;19.01;100.00;100030.44;4939495;29;20686;-74
2022/09/07 01:47:17;;;;;;;7.75;6.05;;;;;;;19.05;100.00;100021.88;4938003;29;20606;-74
2022/09/07 01:49:48;;;;;;;5.93;5.32;;;;;;;19.02;100.00;100013.94;4938347;29;20225;-75
2022/09/07 01:52:19;;;;;;;7.88;6.05;;;;;;;19.08;100.00;100029.78;4937832;29;20276;-74
2022/09/07 01:54:51;;;;;;;7.45;5.20;;;;;;;19.18;100.00;100040.78;4939386;29;20323;-75
2022/09/07 01:57:26;;;;;;;7.28;5.28;;;;;;;19.26;100.00;100045.56;4940061;29;20204;-74
2022/09/07 02:00:02;;;;;;;8.80;6.20;;;;;;;19.24;100.00;100069.38;4939133;29;20283;-76
2022/09/07 02:02:34;;;;;;;16.92;6.03;;;;;;;19.02;100.00;100082.19;4938488;29;20484;-74
2022/09/07 02:05:07;;;;;;;8.25;6.20;;;;;;;18.84;100.00;100111.03;4939067;29;20308;-75
2022/09/07 02:07:39;;;;;;;8.38;6.60;;;;;;;18.52;100.00;100139.97;4937124;29;20280;-75
2022/09/07 02:10:11;;;;;;;7.15;6.38;;;;;;;18.17;100.00;100161.06;4936803;29;20647;-74
2022/09/07 02:12:43;;;;;;;11.25;7.55;;;;;;;17.94;100.00;100171.97;4937310;29;20272;-75
2022/09/07 02:15:14;;;;;;;11.75;8.23;;;;;;;17.97;100.00;100176.28;4937001;29;20245;-75
2022/09/07 02:17:44;;;;;;;12.38;8.38;;;;;;;17.94;100.00;100179.28;4937739;29;20295;-75
2022/09/07 02:20:15;;;;;;;6.63;5.90;;;;;;;18.06;100.00;100151.03;4938613;29;20269;-74
2022/09/07 02:22:46;;;;;;;10.10;6.28;;;;;;;18.15;100.00;100152.16;4937567;29;20256;-75
2022/09/07 02:25:20;;;;;;;9.50;7.40;;;;;;;18.27;100.00;100172.94;4936526;29;20221;-75
2022/09/07 02:27:51;;;;;;;12.73;7.50;;;;;;;18.24;100.00;100157.72;4936897;29;20284;-75
2022/09/07 02:30:19;;;;;;;11.57;8.23;;;;;;;18.24;100.00;100159.56;4937302;29;20236;-75
2022/09/07 02:32:46;;;;;;;9.20;7.35;;;;;;;18.13;100.00;100188.59;4937151;29;20241;-75
2022/09/07 02:35:13;;;;;;;13.32;7.63;;;;;;;18.10;100.00;100258.81;4936809;29;20813;-75
2022/09/07 02:37:41;;;;;;;12.50;7.43;;;;;;;17.67;100.00;100265.72;4938851;29;20297;-73
2022/09/07 02:40:09;;;;;;;9.50;7.25;;;;;;;17.76;100.00;100249.66;4948245;29;20260;-73
2022/09/07 02:42:38;;;;;;;10.73;7.47;;;;;;;17.89;100.00;100248.59;4942678;29;20237;-75
2022/09/07 02:45:07;;;;;;;7.53;6.15;;;;;;;17.78;100.00;100237.66;4936164;29;20747;-74
2022/09/07 02:47:49;;;;;;;8.50;6.88;;;;;;;17.91;100.00;100230.28;4936394;29;20240;-74
2022/09/07 02:50:33;;;;;;;7.25;6.35;;;;;;;17.94;100.00;100209.25;4936472;29;20205;-74
2022/09/07 02:53:15;;;;;;;8.85;6.53;;;;;;;18.00;100.00;100201.44;4938491;29;20205;-74
2022/09/07 02:55:58;;;;;;;8.57;6.75;;;;;;;18.11;100.00;100171.50;4942270;29;20252;-72
2022/09/07 02:58:34;;;;;;;6.55;5.43;;;;;;;18.20;100.00;100156.22;4942367;29;20660;-71
2022/09/07 03:01:07;;;;;;;5.85;4.40;;;;;;;18.31;100.00;100148.03;4943300;29;20236;-72
2022/09/07 03:03:42;;;;;;;5.18;4.68;;;;;;;18.39;100.00;100146.56;4941598;29;20217;-74
2022/09/07 03:06:16;;;;;;;6.82;4.97;;;;;;;18.42;100.00;100149.88;4937361;29;20225;-74
2022/09/07 03:08:48;;;;;;;6.97;6.30;;;;;;;18.32;100.00;100122.53;4936589;29;20209;-74
2022/09/07 03:11:15;;;;;;;6.53;5.82;;;;;;;18.32;100.00;100127.97;4937243;29;20241;-75
2022/09/07 03:13:42;;;;;;;9.32;7.00;;;;;;;18.29;100.00;100116.44;4936442;29;20289;-74
2022/09/07 03:16:12;;;;;;;9.00;7.10;;;;;;;18.28;100.00;100125.63;4937229;29;20304;-74
2022/09/07 03:18:41;;;;;;;8.40;7.53;;;;;;;18.21;100.00;100116.22;4937902;29;20594;-73
2022/09/07 03:21:07;;;;;;;8.63;6.18;;;;;;;18.21;100.00;100114.38;4937150;29;20237;-74
2022/09/07 03:23:36;;;;;;;8.98;7.10;;;;;;;18.23;100.00;100117.84;4936240;29;20741;-74
2022/09/07 03:26:03;;;;;;;10.00;7.38;;;;;;;18.22;100.00;100115.22;4935266;29;20225;-74
2022/09/07 03:28:30;;;;;;;9.05;6.60;;;;;;;18.24;100.00;100114.09;4936064;29;20233;-73
2022/09/07 03:30:56;;;;;;;8.73;6.45;;;;;;;18.32;100.00;100106.19;4936386;29;20640;-74
2022/09/07 03:33:23;;;;;;;9.02;6.85;;;;;;;18.42;100.00;100109.00;4935843;29;20205;-74
2022/09/07 03:36:01;;;;;;;8.75;7.20;;;;;;;18.49;100.00;100110.22;4938340;29;20260;-72
2022/09/07 03:38:27;;;;;;;7.07;6.32;;;;;;;18.58;100.00;100108.59;4939915;29;20595;-73
2022/09/07 03:40:58;;;;;;;18.90;11.30;;;;;;;18.65;100.00;100098.03;4942097;29;20293;-74
2022/09/07 03:43:25;;;;;;;8.43;6.20;;;;;;;18.72;100.00;100110.16;4950500;29;20204;-73
2022/09/07 03:45:56;;;;;;;8.40;6.13;;;;;;;18.64;100.00;100108.09;4923687;29;20312;-73
2022/09/07 03:48:23;;;;;;;9.80;6.97;;;;;;;18.70;100.00;100101.22;4919350;29;20301;-74
2022/09/07 03:50:57;;;;;;;8.35;5.82;;;;;;;18.76;100.00;100108.91;4936191;29;20449;-72
2022/09/07 03:53:23;;;;;;;7.35;5.50;;;;;;;18.79;100.00;100096.91;4935280;29;20201;-72
2022/09/07 03:55:56;;;;;;;7.50;6.63;;;;;;;18.90;100.00;100097.75;4916574;29;20317;-74
2022/09/07 03:58:24;;;;;;;9.32;6.15;;;;;;;18.98;100.00;100091.63;4915967;29;20228;-72
2022/09/07 04:00:50;;;;;;;10.80;7.13;;;;;;;18.95;100.00;100087.28;4916597;29;20210;-73
2022/09/07 04:03:17;;;;;;;7.93;6.60;;;;;;;18.96;100.00;100097.19;4928442;29;20445;-73
2022/09/07 04:05:43;;;;;;;6.65;6.05;;;;;;;18.95;100.00;100097.34;4956956;28;20227;-74
2022/09/07 04:08:11;;;;;;;10.93;6.65;;;;;;;18.89;100.00;100100.59;4954071;29;20217;-73
2022/09/07 04:10:39;;;;;;;7.30;6.50;;;;;;;18.88;100.00;100090.66;4955857;28;20199;-72
2022/09/07 04:13:06;;;;;;;8.30;6.78;;;;;;;18.94;100.00;100087.41;4954057;29;20232;-71
2022/09/07 04:15:32;;;;;;;11.63;7.18;;;;;;;18.97;100.00;100084.41;4955458;29;20225;-73
2022/09/07 04:18:00;;;;;;;9.90;7.13;;;;;;;18.84;100.00;100090.06;4955858;29;20233;-72
2022/09/07 04:20:27;;;;;;;10.63;7.40;;;;;;;18.91;100.00;100095.88;4953313;29;20441;-73
2022/09/07 04:22:54;;;;;;;10.00;7.25;;;;;;;18.99;100.00;100084.28;4938967;29;20564;-74
2022/09/07 04:25:22;;;;;;;10.57;8.05;;;;;;;18.95;100.00;100089.16;4939278;29;20312;-74
2022/09/07 04:27:48;;;;;;;8.15;7.35;;;;;;;18.93;100.00;100093.88;4952257;29;20204;-73
2022/09/07 04:30:15;;;;;;;10.00;8.07;;;;;;;18.90;100.00;100088.66;4941088;29;20284;-74
2022/09/07 04:32:42;;;;;;;17.23;14.23;;;;;;;18.89;100.00;100098.72;4936709;29;20646;-74
2022/09/07 04:35:09;;;;;;;9.63;8.25;;;;;;;18.81;100.00;100103.09;4935698;29;20316;-73
2022/09/07 04:37:36;;;;;;;9.85;6.90;;;;;;;18.75;100.00;100099.00;4935351;29;20217;-73
2022/09/07 04:40:04;;;;;;;11.93;8.70;;;;;;;18.69;100.00;100104.97;4934628;29;20212;-74
2022/09/07 04:42:32;;;;;;;18.45;14.75;;;;;;;18.61;100.00;100102.00;4934775;29;20209;-73
2022/09/07 04:44:58;;;;;;;22.13;19.40;;;;;;;18.54;100.00;100104.38;4935309;29;20700;-73
2022/09/07 04:47:25;;;;;;;16.13;11.35;;;;;;;18.47;100.00;100109.47;4935019;29;20496;-74
2022/09/07 04:49:51;;;;;;;10.07;8.02;;;;;;;18.41;100.00;100104.56;4935263;29;20288;-75
2022/09/07 04:52:18;;;;;;;8.30;7.47;;;;;;;18.24;100.00;100089.56;4935678;29;20264;-74
2022/09/07 04:54:49;;;;;;;11.82;8.50;;;;;;;18.32;100.00;100111.63;4935915;29;20312;-74
2022/09/07 04:57:15;;;;;;;14.65;9.20;;;;;;;18.06;100.00;100113.75;4937654;29;20563;-75
2022/09/07 04:59:43;;;;;;;12.75;10.05;;;;;;;17.91;100.00;100129.50;4938123;29;20205;-75
2022/09/07 05:02:10;;;;;;;9.52;8.52;;;;;;;17.93;100.00;100132.06;4939432;29;20304;-75
2022/09/07 05:04:37;;;;;;;12.75;9.70;;;;;;;17.97;100.00;100130.84;4939116;29;20249;-75
2022/09/07 05:07:03;;;;;;;10.57;7.57;;;;;;;18.03;100.00;100135.81;4939172;29;20236;-76
2022/09/07 05:09:30;;;;;;;10.02;8.30;;;;;;;17.99;100.00;100137.03;4938782;29;20232;-76
2022/09/07 05:11:57;;;;;;;12.85;9.30;;;;;;;18.01;100.00;100124.16;4939190;29;20293;-75
2022/09/07 05:14:23;;;;;;;9.63;7.50;;;;;;;18.03;100.00;100133.06;4937939;29;20241;-75
2022/09/07 05:16:51;;;;;;;10.85;8.18;;;;;;;18.00;100.00;100140.63;4939267;29;20292;-74
2022/09/07 05:19:18;;;;;;;10.93;9.60;;;;;;;17.95;100.00;100134.69;4937467;29;20633;-75
2022/09/07 05:21:44;;;;;;;12.25;9.50;;;;;;;17.95;100.00;100140.13;4937654;29;20295;-74
2022/09/07 05:24:11;;;;;;;17.10;15.30;;;;;;;18.05;100.00;100143.88;4920798;29;20292;-74
2022/09/07 05:26:39;;;;;;;22.15;19.52;;;;;;;18.04;100.00;100148.41;4938042;29;20308;-74
2022/09/07 05:29:06;;;;;;;15.70;14.00;;;;;;;18.03;100.00;100138.53;4938526;29;20206;-76
2022/09/07 05:31:33;;;;;;;11.77;10.57;;;;;;;17.74;100.00;100145.41;4937274;29;20296;-73
2022/09/07 05:34:01;;;;;;;14.02;9.10;;;;;;;17.87;100.00;100154.38;4937832;29;20293;-73
2022/09/07 05:36:29;;;;;;;13.48;8.90;;;;;;;17.95;100.00;100161.94;4937347;29;20362;-73
2022/09/07 05:38:58;;;;;;;10.02;8.05;;;;;;;18.05;100.00;100154.75;4936671;29;20210;-75
2022/09/07 05:41:26;;;;;;;14.63;10.23;;;;;;;17.90;100.00;100159.56;4936889;29;20300;-74
2022/09/07 05:43:54;;;;;;;12.98;10.30;;;;;;;17.87;100.00;100157.09;4937050;29;20650;-74
2022/09/07 05:46:21;;;;;;;14.20;10.88;;;;;;;17.95;100.00;100157.34;4936740;29;20799;-72
2022/09/07 05:48:48;;;;;;;11.35;9.80;;;;;;;18.00;100.00;100162.41;4936933;29;20201;-72
2022/09/07 05:51:16;;;;;;;11.93;10.77;;;;;;;18.01;100.00;100156.84;4936976;29;20201;-74
2022/09/07 05:53:44;;;;;;;16.67;11.98;;;;;;;18.21;100.00;100159.84;4936931;29;20213;-74
2022/09/07 05:56:12;;;;;;;13.75;10.57;;;;;;;18.39;100.00;100168.38;4937553;29;20586;-72
2022/09/07 05:58:39;;;;;;;11.02;9.77;;;;;;;18.58;100.00;100165.84;4937437;29;20209;-74
2022/09/07 06:01:07;;;;;;;15.82;10.73;;;;;;;18.71;100.00;100165.72;4938143;29;20729;-72
2022/09/07 06:03:35;;;;;;;9.60;8.60;;;;;;;18.86;100.00;100167.19;4938274;29;20292;-73
2022/09/07 06:06:03;;;;;;;12.45;8.70;;;;;;;19.03;100.00;100160.31;4937379;29;20240;-75
2022/09/07 06:08:32;;;;;;;14.13;10.35;;;;;;;19.15;100.00;100152.94;4937751;29;20209;-73
2022/09/07 06:11:04;;;;;;;11.98;9.57;;;;;;;19.25;100.00;100140.25;4937371;29;20205;-73
2022/09/07 06:13:31;;;;;;;16.42;9.57;;;;;;;19.41;100.00;100138.94;4937275;29;20276;-75
2022/09/07 06:15:59;;;;;;;12.27;9.27;;;;;;;19.51;100.00;100140.69;4937311;29;20341;-74
2022/09/07 06:18:30;;;;;;;13.48;9.93;;;;;;;19.55;100.00;100141.31;4937279;29;20240;-73
2022/09/07 06:20:56;;;;;;;10.70;9.60;;;;;;;19.48;100.00;100135.53;4937272;29;20585;-75
2022/09/07 06:23:23;;;;;;;10.43;9.43;;;;;;;19.70;100.00;100141.88;4936665;29;20312;-73
2022/09/07 06:25:53;;;;;;;10.90;9.80;;;;;;;19.89;100.00;100128.31;4938851;29;20527;-74
2022/09/07 06:28:20;;;;;;;10.73;9.63;;;;;;;20.04;100.00;100126.09;4936872;29;20284;-74
2022/09/07 06:30:47;;;;;;;15.47;11.47;;;;;;;20.13;100.00;100128.00;4937607;29;20484;-76
2022/09/07 06:33:13;;;;;;;12.60;9.13;;;;;;;20.34;100.00;100127.91;4937306;29;20522;-75
2022/09/07 08:06:14;;;;;;;5.53;3.90;;;;;;;25.31;88.51;100152.19;5466604;23;20527;-76
2022/09/07 08:08:41;;;;;;;6.17;4.20;;;;;;;25.13;90.21;100153.16;4965931;29;20483;-74
2022/09/07 08:11:10;;;;;;;5.53;4.30;;;;;;;25.00;91.53;100160.19;4965582;29;20472;-76
2022/09/07 08:13:38;;;;;;;6.90;4.00;;;;;;;24.24;97.56;100153.69;4966389;29;20488;-76
2022/09/07 08:16:06;;;;;;;5.80;4.03;;;;;;;24.51;94.94;100160.91;4965904;28;20479;-75
2022/09/07 08:28:55;;;;;;;4.90;3.50;;;;;;;27.48;75.37;100161.13;5677216;23;20495;-76
2022/09/07 08:31:22;;;;;;;6.00;3.80;;;;;;;28.12;69.28;100170.94;4962631;29;20444;-75
2022/09/07 08:33:48;;;;;;;5.50;3.93;;;;;;;27.81;71.70;100171.88;4963984;29;20471;-77
2022/09/07 08:36:16;;;;;;;7.10;4.10;;;;;;;28.25;69.66;100174.75;4964765;29;20466;-76
2022/09/07 08:38:43;;;;;;;6.07;3.63;;;;;;;28.02;70.67;100173.97;4963414;28;20464;-77
2022/09/07 08:41:34;;;;;;;7.60;4.30;;;;;;;27.23;73.71;100177.03;4964668;29;20444;-75
2022/09/07 08:44:05;;;;;;;7.60;4.03;;;;;;;27.89;68.64;100179.28;4963398;29;20466;-74
2022/09/07 08:46:37;;;;;;;7.60;4.20;;;;;;;28.18;68.35;100181.25;4961513;29;20527;-76
2022/09/07 08:49:06;;;;;;;6.73;3.60;;;;;;;28.88;66.35;100183.53;4961539;28;20465;-75
2022/09/07 08:51:39;;;;;;;5.23;3.00;;;;;;;30.13;59.22;100182.22;4960901;29;20978;-75
2022/09/07 08:54:06;;;;;;;4.23;2.90;;;;;;;29.36;61.85;100183.03;4964543;29;20435;-76
2022/09/07 08:56:37;;;;;;;7.80;3.40;;;;;;;28.48;65.94;100185.75;4961728;29;20440;-77
2022/09/07 08:59:15;;;;;;;6.30;3.93;;;;;;;26.52;77.94;100199.09;4961780;28;20475;-76
2022/09/07 09:01:43;;;;;;;7.47;4.50;;;;;;;25.92;83.43;100192.19;4961893;29;20463;-74
2022/09/07 09:04:15;;;;;;;5.83;3.90;;;;;;;27.08;76.64;100187.97;4962498;29;20448;-75
2022/09/07 09:06:53;;;;;;;4.63;3.77;;;;;;;28.26;70.29;100197.75;4962203;29;20472;-76
2022/09/07 09:09:28;;;;;;;5.87;3.53;;;;;;;29.98;61.37;100200.91;4961879;28;20460;-76
2022/09/07 09:12:07;;;;;;;4.57;3.90;;;;;;;28.76;66.70;100198.91;4961165;29;20446;-75
2022/09/07 09:14:41;;;;;;;7.60;3.57;;;;;;;29.58;62.52;100185.78;4962055;29;20428;-75
2022/09/07 09:17:11;;;;;;;8.43;4.13;;;;;;;30.38;59.12;100190.13;4961428;29;20925;-76
2022/09/07 09:19:55;;;;;;;4.03;3.60;;;;;;;31.02;57.26;100188.94;4962732;28;20464;-75
2022/09/07 09:22:27;;;;;;;5.80;3.70;;;;;;;31.41;55.43;100194.81;4963595;29;20436;-75
2022/09/07 09:25:03;;;;;;;6.43;3.90;;;;;;;29.60;60.34;100190.09;4961578;29;20491;-76
2022/09/07 09:27:29;;;;;;;5.33;3.57;;;;;;;29.69;59.92;100191.72;4960698;29;20416;-74
2022/09/07 09:29:57;;;;;;;4.80;3.20;;;;;;;29.56;61.33;100191.53;4959829;28;20468;-76
2022/09/07 09:32:32;;;;;;;6.80;3.87;;;;;;;28.45;65.53;100191.66;4959769;29;20448;-76
2022/09/07 09:35:13;;;;;;;5.83;3.23;;;;;;;27.89;69.75;100185.69;4959716;29;20812;-76
2022/09/07 09:37:41;;;;;;;5.53;3.40;;;;;;;27.56;72.37;100183.16;4961234;29;20507;-76
2022/09/07 09:40:20;;;;;;;6.27;4.20;;;;;;;27.56;73.63;100194.22;4959971;28;20554;-76
2022/09/07 09:42:47;;;;;;;6.17;3.87;;;;;;;27.82;72.00;100188.31;4943398;29;20436;-75
2022/09/07 09:45:19;;;;;;;6.20;3.87;;;;;;;27.65;71.89;100187.56;4959786;29;21128;-76
2022/09/07 09:47:49;;;;;;;3.77;3.20;;;;;;;27.65;73.39;100186.72;4961256;29;20930;-75
2022/09/07 09:50:21;;;;;;;4.93;2.83;;;;;;;27.31;75.57;100178.88;4960964;28;20527;-76
2022/09/07 09:52:49;;;;;;;4.20;3.03;;;;;;;27.40;74.83;100175.00;4962221;29;20432;-75
2022/09/07 09:55:26;;;;;;;7.17;3.63;;;;;;;28.12;70.44;100169.00;4963909;29;20452;-76
2022/09/07 09:57:57;;;;;;;4.80;3.77;;;;;;;28.96;65.27;100160.34;4963449;29;20458;-76
2022/09/07 10:00:27;;;;;;;5.80;2.83;;;;;;;30.28;59.38;100161.81;4967180;28;20483;-75
2022/09/07 10:03:06;;;;;;;4.90;2.80;;;;;;;30.65;58.52;100159.69;4960017;29;20448;-74
2022/09/07 10:05:36;;;;;;;4.07;2.60;;;;;;;31.69;53.55;100162.16;4961178;29;20977;-75
2022/09/07 10:08:06;;;;;;;2.93;2.60;;;;;;;32.71;48.82;100159.00;4961122;28;20448;-75
2022/09/07 10:10:33;;;;;;;4.67;2.73;;;;;;;31.76;51.82;100154.66;4962571;29;20432;-76
2022/09/07 10:12:59;;;;;;;4.57;2.53;;;;;;;29.80;59.66;100142.25;4964201;29;20478;-75
2022/09/07 10:15:34;;;;;;;6.10;2.97;;;;;;;31.72;53.66;100145.00;4962199;29;20432;-76
2022/09/07 10:18:04;;;;;;;4.37;2.53;;;;;;;33.21;49.31;100145.25;4960956;29;20440;-76
2022/09/07 10:20:34;;;;;;;3.53;2.33;;;;;;;31.71;49.37;100146.09;4963436;29;20870;-74
2022/09/07 10:23:01;;;;;;;3.50;2.20;;;;;;;31.66;51.35;100145.00;4959919;29;20523;-73
2022/09/07 10:25:31;;;;;;;3.40;2.17;;;;;;;31.74;51.19;100128.94;4959327;29;20488;-73
2022/09/07 10:28:03;;;;;;;8.37;2.90;;;;;;;30.70;54.18;100138.53;4958883;29;20452;-73
2022/09/07 10:30:43;;;;;;;4.60;2.77;;;;;;;31.02;54.31;100130.53;4940873;29;20449;-74
2022/09/07 10:33:15;;;;;;;4.97;2.40;;;;;;;31.55;51.67;100129.81;4939182;29;20449;-74
2022/09/07 10:35:51;;;;;;;3.10;2.40;;;;;;;31.47;51.39;100124.44;4939726;29;20432;-75
2022/09/07 10:38:21;;;;;;;3.60;2.20;;;;;;;32.82;47.25;100124.88;4939093;29;20453;-72
2022/09/07 10:40:58;;;;;;;4.00;2.63;;;;;;;32.83;46.26;100112.63;4939581;29;20449;-75
2022/09/07 10:43:40;;;;;;;5.23;2.67;;;;;;;32.69;48.49;100116.56;4938651;29;20452;-74
2022/09/07 10:46:23;;;;;;;5.60;2.93;;;;;;;32.65;48.04;100104.13;4939527;29;20493;-74
2022/09/07 10:48:59;;;;;;;2.93;2.17;;;;;;;33.29;45.29;100116.22;4938286;29;20963;-74
2022/09/07 10:51:33;;;;;;;3.17;2.20;;;;;;;34.23;42.74;100117.16;4939099;29;20887;-74
2022/09/07 10:54:11;;;;;;;4.80;2.67;;;;;;;31.58;48.52;100116.31;4938762;29;20456;-73
2022/09/07 10:56:46;;;;;;;4.80;2.50;;;;;;;33.09;45.64;100108.00;4938872;29;20425;-73
2022/09/07 10:59:30;;;;;;;4.80;2.27;;;;;;;33.32;44.91;100101.84;4938441;29;20483;-75
2022/09/07 11:02:10;;;;;;;3.17;2.20;;;;;;;33.72;44.83;100107.13;4939521;29;20518;-75
2022/09/07 11:04:51;;;;;;;4.87;2.30;;;;;;;34.47;42.84;100101.41;4939005;29;20506;-74
2022/09/07 11:07:35;;;;;;;4.23;2.37;;;;;;;35.50;40.41;100102.31;4939189;29;20497;-74
2022/09/07 11:10:15;;;;;;;4.03;2.43;;;;;;;35.18;40.03;100098.97;4939316;29;20480;-75
2022/09/07 11:12:44;;;;;;;2.40;2.20;;;;;;;33.56;42.84;100105.69;4938827;29;20792;-73
2022/09/07 11:15:19;;;;;;;2.83;2.00;;;;;;;34.69;40.84;100090.63;4939996;29;20449;-74
2022/09/07 11:17:49;;;;;;;3.70;1.87;;;;;;;36.06;38.92;100097.25;4941542;29;20429;-73
2022/09/07 11:20:24;;;;;;;5.87;2.60;;;;;;;36.00;37.85;100089.81;4939720;29;20461;-75
2022/09/07 11:23:02;;;;;;;5.07;2.33;;;;;;;34.61;39.63;100090.91;4941271;29;20433;-74
2022/09/07 11:25:33;;;;;;;2.87;1.90;;;;;;;34.87;39.11;100084.09;4939445;29;20492;-71
2022/09/07 11:28:04;;;;;;;5.77;2.73;;;;;;;34.86;39.11;100088.84;4939852;29;20445;-73
2022/09/07 11:30:35;;;;;;;3.13;2.20;;;;;;;34.04;39.89;100080.78;4940304;29;20446;-73
2022/09/07 11:33:10;;;;;;;2.10;1.73;;;;;;;33.57;41.70;100087.88;4940578;29;20429;-75
2022/09/07 11:35:45;;;;;;;4.63;2.43;;;;;;;33.78;41.63;100087.50;4940731;29;20451;-75
2022/09/07 11:38:25;;;;;;;3.10;2.20;;;;;;;32.69;43.33;100077.53;4936831;29;20418;-74
2022/09/07 11:41:01;;;;;;;3.07;2.10;;;;;;;33.53;41.94;100075.47;4937562;29;20429;-74
2022/09/07 11:43:31;;;;;;;3.50;2.13;;;;;;;33.27;42.09;100073.75;4943161;29;20440;-74
2022/09/07 11:46:03;;;;;;;4.13;2.57;;;;;;;33.81;40.67;100067.50;4938202;29;20499;-75
2022/09/07 11:48:36;;;;;;;4.23;2.40;;;;;;;36.64;36.45;100070.25;4938971;29;20524;-74
2022/09/07 11:51:07;;;;;;;3.53;2.33;;;;;;;34.84;37.89;100073.41;4940414;29;20437;-74
2022/09/07 11:53:38;;;;;;;3.37;1.87;;;;;;;34.79;38.61;100067.66;4939508;29;20874;-75
2022/09/07 11:56:11;;;;;;;2.63;2.10;;;;;;;34.97;38.26;100062.00;4937823;29;20459;-76
2022/09/07 11:59:10;;;;;;;3.33;2.23;;;;;;;34.09;39.04;100068.06;4937740;29;20834;-72
2022/09/07 12:01:47;;;;;;;7.93;5.10;;;;;;;33.78;39.43;100067.09;4939259;29;20461;-74
2022/09/07 12:04:29;;;;;;;9.23;2.67;;;;;;;34.64;37.53;100054.97;4936521;29;20512;-72
2022/09/07 12:07:31;;;;;;;3.30;2.00;;;;;;;36.14;35.46;100054.88;4936954;29;20509;-73
2022/09/07 12:10:18;;;;;;;3.10;2.03;;;;;;;34.84;36.05;100049.06;4896089;29;20872;-73
2022/09/07 12:13:07;;;;;;;3.97;2.30;;;;;;;33.76;38.07;100049.72;4896655;29;20451;-73
2022/09/07 12:15:47;;;;;;;2.47;1.70;;;;;;;33.20;38.52;100035.59;4896940;29;20498;-77
2022/09/07 12:18:26;;;;;;;3.40;1.73;;;;;;;34.04;37.65;100022.13;4896336;29;20754;-72
2022/09/07 12:20:54;;;;;;;3.73;2.70;;;;;;;34.60;38.63;100011.75;4895933;29;20542;-72
2022/09/07 12:23:27;;;;;;;3.53;1.97;;;;;;;35.65;36.80;100034.69;4896025;29;20450;-71
2022/09/07 12:26:32;;;;;;;4.20;1.80;;;;;;;33.88;38.48;100027.50;4896167;29;20881;-75
2022/09/07 12:29:24;;;;;;;3.53;1.93;;;;;;;34.57;37.51;100022.56;4895472;29;20513;-73
2022/09/07 12:31:52;;;;;;;2.40;1.80;;;;;;;34.98;36.29;100018.09;4895734;29;20487;-72
2022/09/07 12:34:49;;;;;;;2.07;1.70;;;;;;;35.07;36.34;100016.66;4895317;29;20841;-73
2022/09/07 12:37:43;;;;;;;2.40;1.70;;;;;;;33.71;38.35;100016.91;4896055;29;20423;-73
2022/09/07 12:40:48;;;;;;;3.20;2.10;;;;;;;31.85;42.03;100018.00;4888095;29;20475;-72
2022/09/07 12:43:35;;;;;;;2.30;2.07;;;;;;;33.15;39.74;100009.44;4896490;29;20989;-72
2022/09/07 12:46:02;;;;;;;2.50;2.30;;;;;;;31.36;43.20;100021.06;4935897;29;20498;-72
2022/09/07 12:48:46;;;;;;;2.60;2.23;;;;;;;32.32;41.13;100010.38;4954911;28;20641;-72
2022/09/07 12:51:26;;;;;;;3.80;2.30;;;;;;;32.38;41.02;99993.63;4955772;29;20460;-75
2022/09/07 12:54:05;;;;;;;2.27;2.07;;;;;;;32.64;40.42;99991.78;4955928;29;20435;-74
2022/09/07 12:56:43;;;;;;;3.03;1.83;;;;;;;32.94;39.93;99986.41;4956236;29;20435;-74
2022/09/07 12:59:39;;;;;;;2.20;1.90;;;;;;;32.17;40.02;100011.50;4956087;28;20464;-72
2022/09/07 13:02:29;;;;;;;3.80;2.37;;;;;;;31.69;40.63;100011.84;4958192;29;20447;-71
2022/09/07 13:05:05;;;;;;;2.20;1.87;;;;;;;29.81;43.64;100019.94;4917607;29;20442;-74
2022/09/07 13:07:55;;;;;;;2.77;2.00;;;;;;;28.81;47.00;100008.00;4917180;29;20493;-74
2022/09/07 13:10:30;;;;;;;3.47;2.60;;;;;;;28.41;49.25;100010.31;4917567;29;20559;-73
2022/09/07 13:13:03;;;;;;;6.63;4.10;;;;;;;28.40;50.38;100022.44;4918600;29;20452;-72
2022/09/07 13:15:37;;;;;;;3.73;3.10;;;;;;;29.25;48.44;100014.38;4917150;29;20943;-72
2022/09/07 13:18:04;;;;;;;2.60;2.40;;;;;;;28.92;47.71;100001.06;4923500;29;20422;-74
2022/09/07 13:20:31;;;;;;;4.57;2.80;;;;;;;29.08;47.78;100009.13;4920441;29;20533;-72
2022/09/07 13:23:27;;;;;;;3.30;2.00;;;;;;;28.95;45.59;100008.13;4918104;29;20540;-71
2022/09/07 13:25:59;;;;;;;7.17;2.80;;;;;;;29.10;48.08;100020.00;4918692;29;20439;-78
2022/09/07 13:28:40;;;;;;;3.47;2.27;;;;;;;29.63;50.26;100031.53;4923704;29;20473;-77
2022/09/07 13:31:42;;;;;;;4.50;2.10;;;;;;;29.78;50.71;100025.91;4922265;29;20450;-76
2022/09/07 13:34:36;;;;;;;6.73;2.43;;;;;;;29.72;51.85;100026.72;4849017;29;20452;-78
2022/09/07 13:37:05;;;;;;;3.17;1.83;;;;;;;30.11;50.28;100039.09;4846574;29;20440;-75
2022/09/07 13:39:39;;;;;;;4.33;2.20;;;;;;;30.44;48.94;100030.94;4846613;29;20473;-77
2022/09/07 13:42:16;;;;;;;3.40;1.90;;;;;;;32.03;44.08;100032.13;4863581;29;20454;-77
2022/09/07 13:44:53;;;;;;;2.43;1.93;;;;;;;33.15;41.71;100037.34;4884549;29;20854;-78
2022/09/07 13:47:31;;;;;;;3.00;1.77;;;;;;;33.85;39.90;100032.44;4884443;29;20475;-76